createdAt,value
2018-11-06T00:02:15.813Z,51.20
2018-11-06T00:04:48.628Z,51.20
2018-11-06T00:07:15.710Z,51.20
2018-11-06T00:09:42.904Z,51.20
2018-11-06T00:12:09.963Z,51.20
2018-11-06T00:14:37.105Z,51.20
2018-11-06T00:17:04.342Z,51.20
2018-11-06T00:19:31.428Z,51.20
2018-11-06T00:21:58.523Z,51.20
2018-11-06T00:24:25.614Z,51.20
2018-11-06T00:26:52.703Z,51.20
2018-11-06T00:29:19.800Z,51.20
2018-11-06T00:31:46.875Z,51.20
2018-11-06T00:34:14.203Z,51.10
2018-11-06T00:36:41.272Z,51.20
2018-11-06T00:39:08.864Z,51.20
2018-11-06T00:41:35.947Z,51.10
2018-11-06T00:44:03.240Z,51.10
2018-11-06T00:46:30.319Z,51.10
2018-11-06T00:48:57.476Z,51.10
2018-11-06T00:51:24.595Z,51.10
2018-11-06T00:53:51.723Z,51.10
2018-11-06T00:56:18.789Z,51.10
2018-11-06T00:58:45.884Z,51.10
2018-11-06T01:01:13.016Z,51.10
2018-11-06T01:03:45.751Z,51.10
2018-11-06T01:06:12.859Z,51.70
2018-11-06T01:08:39.934Z,51.10
2018-11-06T01:11:07.007Z,51.00
2018-11-06T01:13:34.107Z,51.10
2018-11-06T01:16:01.191Z,51.10
2018-11-06T01:18:28.316Z,51.10
2018-11-06T01:20:55.404Z,51.10
2018-11-06T01:23:22.490Z,51.10
2018-11-06T01:25:49.569Z,51.10
2018-11-06T01:28:16.663Z,51.00
2018-11-06T01:30:43.747Z,51.00
2018-11-06T01:33:10.856Z,51.00
2018-11-06T01:35:37.947Z,51.10
2018-11-06T01:38:05.212Z,51.00
2018-11-06T01:43:05.102Z,51.00
2018-11-06T01:45:32.194Z,51.00
2018-11-06T01:47:59.291Z,51.10
2018-11-06T01:50:26.373Z,51.10
2018-11-06T01:52:53.443Z,51.00
2018-11-06T01:55:20.542Z,51.00
2018-11-06T01:57:47.648Z,51.00
2018-11-06T02:00:15.958Z,51.00
2018-11-06T02:02:43.059Z,51.10
2018-11-06T02:05:11.690Z,51.00
2018-11-06T02:07:39.075Z,51.00
2018-11-06T02:10:06.926Z,51.00
2018-11-06T02:12:34.012Z,51.00
2018-11-06T02:15:01.106Z,51.00
2018-11-06T02:17:28.195Z,51.00
2018-11-06T02:19:55.279Z,51.10
2018-11-06T02:22:22.354Z,51.00
2018-11-06T02:24:49.427Z,51.00
2018-11-06T02:27:16.534Z,51.00
2018-11-06T02:29:43.617Z,51.00
2018-11-06T02:32:10.799Z,51.00
2018-11-06T02:34:37.872Z,51.00
2018-11-06T02:37:04.943Z,51.00
2018-11-06T02:39:32.030Z,51.00
2018-11-06T02:41:59.124Z,51.10
2018-11-06T02:44:26.207Z,51.00
2018-11-06T02:46:53.500Z,51.00
2018-11-06T02:49:20.575Z,51.00
2018-11-06T02:51:47.647Z,51.00
2018-11-06T02:54:14.778Z,51.00
2018-11-06T02:56:41.848Z,51.00
2018-11-06T02:59:08.920Z,51.00
2018-11-06T03:01:36.031Z,51.00
2018-11-06T03:04:03.089Z,51.00
2018-11-06T03:06:30.192Z,51.00
2018-11-06T03:08:57.251Z,51.00
2018-11-06T03:11:24.340Z,51.00
2018-11-06T03:13:51.433Z,51.00
2018-11-06T03:16:18.545Z,51.00
2018-11-06T03:18:45.635Z,51.00
2018-11-06T03:21:12.716Z,51.00
2018-11-06T03:23:39.813Z,51.00
2018-11-06T03:26:06.880Z,51.00
2018-11-06T03:28:33.990Z,51.00
2018-11-06T03:31:01.067Z,51.00
2018-11-06T03:33:28.164Z,50.90
2018-11-06T03:35:55.276Z,51.00
2018-11-06T03:38:22.364Z,51.00
2018-11-06T03:40:49.448Z,50.90
2018-11-06T03:43:16.548Z,51.60
2018-11-06T03:45:43.627Z,50.90
2018-11-06T03:48:10.716Z,51.00
2018-11-06T03:50:37.783Z,51.00
2018-11-06T03:53:04.895Z,51.00
2018-11-06T03:55:32.046Z,51.00
2018-11-06T03:57:59.113Z,51.00
2018-11-06T04:00:26.196Z,51.00
2018-11-06T04:02:53.284Z,51.00
2018-11-06T04:05:20.570Z,50.90
2018-11-06T04:07:47.672Z,51.00
2018-11-06T04:10:14.744Z,51.00
2018-11-06T04:12:42.033Z,51.00
2018-11-06T04:15:09.876Z,51.00
2018-11-06T04:17:37.007Z,51.00
2018-11-06T04:20:04.655Z,51.00
2018-11-06T04:22:31.751Z,51.00
2018-11-06T04:24:58.823Z,51.00
2018-11-06T04:27:25.928Z,51.00
2018-11-06T04:29:53.024Z,51.00
2018-11-06T04:32:20.174Z,51.00
2018-11-06T04:34:47.306Z,51.00
2018-11-06T04:37:14.395Z,51.00
2018-11-06T04:39:41.482Z,51.00
2018-11-06T04:42:08.572Z,51.10
2018-11-06T04:44:35.664Z,51.00
2018-11-06T04:47:02.755Z,51.10
2018-11-06T04:49:29.839Z,51.00
2018-11-06T04:51:56.905Z,51.00
2018-11-06T04:54:23.990Z,51.10
2018-11-06T04:56:51.098Z,51.00
2018-11-06T04:59:18.214Z,51.10
2018-11-06T05:01:45.303Z,51.00
2018-11-06T05:04:12.454Z,51.10
2018-11-06T05:06:39.574Z,51.00
2018-11-06T05:09:07.342Z,51.00
2018-11-06T05:11:34.438Z,51.00
2018-11-06T05:14:01.532Z,51.10
2018-11-06T05:16:28.607Z,51.10
2018-11-06T05:18:55.698Z,51.00
2018-11-06T05:21:22.788Z,51.00
2018-11-06T05:23:49.884Z,51.10
2018-11-06T05:26:17.000Z,51.00
2018-11-06T05:28:44.087Z,51.30
2018-11-06T05:31:11.175Z,51.00
2018-11-06T05:33:38.260Z,51.10
2018-11-06T05:36:05.372Z,51.00
2018-11-06T05:38:32.471Z,51.00
2018-11-06T05:41:02.876Z,51.00
2018-11-06T05:43:29.989Z,51.00
2018-11-06T05:45:57.144Z,51.10
2018-11-06T05:48:24.256Z,51.10
2018-11-06T05:50:51.345Z,51.00
2018-11-06T05:53:18.764Z,51.00
2018-11-06T05:55:45.951Z,51.10
2018-11-06T05:58:13.044Z,51.10
2018-11-06T06:00:40.326Z,51.00
2018-11-06T06:03:07.490Z,51.00
2018-11-06T06:05:34.666Z,51.00
2018-11-06T06:08:01.755Z,51.10
2018-11-06T06:10:28.840Z,51.00
2018-11-06T06:12:55.934Z,51.10
2018-11-06T06:15:23.019Z,51.10
2018-11-06T06:17:50.203Z,51.00
2018-11-06T06:20:17.305Z,51.00
2018-11-06T06:22:44.391Z,51.00
2018-11-06T06:25:11.483Z,51.00
2018-11-06T06:27:38.563Z,51.10
2018-11-06T06:30:08.639Z,51.10
2018-11-06T06:32:35.732Z,51.00
2018-11-06T06:35:02.864Z,51.10
2018-11-06T06:37:29.900Z,51.10
2018-11-06T06:39:57.110Z,51.10
2018-11-06T06:42:24.212Z,51.10
2018-11-06T06:44:51.331Z,51.10
2018-11-06T06:47:18.428Z,51.10
2018-11-06T06:49:45.537Z,51.10
2018-11-06T06:52:12.642Z,51.10
2018-11-06T06:54:39.834Z,51.10
2018-11-06T06:57:06.843Z,51.10
2018-11-06T06:59:33.930Z,51.10
2018-11-06T07:02:01.015Z,51.10
2018-11-06T07:04:28.104Z,51.10
2018-11-06T07:06:55.210Z,51.10
2018-11-06T07:09:22.281Z,51.20
2018-11-06T07:11:49.374Z,51.10
2018-11-06T07:14:16.459Z,51.10
2018-11-06T07:16:43.593Z,51.10
2018-11-06T07:19:10.766Z,51.20
2018-11-06T07:21:37.844Z,51.20
2018-11-06T07:24:05.146Z,51.20
2018-11-06T07:26:32.811Z,51.20
2018-11-06T07:28:59.991Z,51.20
2018-11-06T07:31:26.976Z,51.20
2018-11-06T07:33:54.195Z,51.90
2018-11-06T07:36:21.280Z,51.20
2018-11-06T07:38:48.383Z,51.20
2018-11-06T07:41:15.551Z,51.20
2018-11-06T07:43:42.611Z,51.20
2018-11-06T07:46:09.851Z,51.20
2018-11-06T07:48:36.930Z,51.30
2018-11-06T07:51:04.070Z,51.30
2018-11-06T07:53:31.261Z,51.30
2018-11-06T07:55:58.366Z,51.30
2018-11-06T07:58:25.447Z,51.30
2018-11-06T08:00:52.543Z,51.30
2018-11-06T08:03:19.634Z,51.30
2018-11-06T08:05:46.723Z,51.30
2018-11-06T08:08:13.815Z,51.40
2018-11-06T08:10:40.907Z,51.30
2018-11-06T08:13:07.987Z,51.30
2018-11-06T08:15:35.074Z,51.30
2018-11-06T08:18:02.234Z,51.30
2018-11-06T08:20:29.326Z,51.30
2018-11-06T08:22:56.438Z,51.40
2018-11-06T08:25:23.525Z,51.40
2018-11-06T08:27:50.641Z,51.40
2018-11-06T08:30:17.716Z,51.40
2018-11-06T08:32:45.199Z,51.40
2018-11-06T08:35:13.423Z,51.40
2018-11-06T08:37:40.758Z,51.30
2018-11-06T08:40:08.518Z,51.40
2018-11-06T08:42:36.007Z,51.40
2018-11-06T08:45:04.159Z,51.40
2018-11-06T08:47:31.263Z,51.40
2018-11-06T08:49:58.364Z,51.50
2018-11-06T08:52:25.463Z,51.40
2018-11-06T08:54:52.565Z,51.40
2018-11-06T08:57:19.663Z,51.40
2018-11-06T08:59:46.751Z,51.40
2018-11-06T09:02:14.116Z,51.40
2018-11-06T09:04:41.203Z,51.40
2018-11-06T09:07:08.280Z,51.40
2018-11-06T09:09:35.348Z,51.40
2018-11-06T09:12:02.457Z,51.40
2018-11-06T09:14:29.545Z,51.40
2018-11-06T09:16:56.715Z,51.40
2018-11-06T09:19:23.780Z,51.40
2018-11-06T09:21:50.875Z,51.50
2018-11-06T09:24:17.963Z,51.40
2018-11-06T09:26:45.025Z,51.40
2018-11-06T09:29:12.120Z,51.50
2018-11-06T09:31:39.220Z,51.40
2018-11-06T09:34:06.294Z,51.50
2018-11-06T09:36:33.388Z,51.50
2018-11-06T09:39:00.524Z,51.50
2018-11-06T09:41:27.699Z,51.50
2018-11-06T09:43:54.716Z,51.40
2018-11-06T09:46:22.189Z,51.50
2018-11-06T09:48:49.333Z,51.50
2018-11-06T09:51:16.413Z,51.50
2018-11-06T09:53:43.507Z,51.40
2018-11-06T09:56:10.608Z,51.40
2018-11-06T09:58:37.703Z,51.40
2018-11-06T10:01:04.825Z,51.40
2018-11-06T10:03:31.917Z,51.40
2018-11-06T10:05:59.048Z,51.50
2018-11-06T10:08:26.086Z,51.40
2018-11-06T10:10:53.147Z,51.40
2018-11-06T10:13:20.259Z,51.50
2018-11-06T10:15:47.388Z,51.40
2018-11-06T10:18:14.472Z,51.50
2018-11-06T10:20:41.564Z,52.10
2018-11-06T10:23:08.658Z,51.50
2018-11-06T10:25:35.778Z,51.40
2018-11-06T10:28:02.885Z,51.50
2018-11-06T10:30:29.990Z,51.50
2018-11-06T10:32:57.092Z,51.40
2018-11-06T10:35:24.194Z,51.50
2018-11-06T10:37:51.331Z,51.50
2018-11-06T10:40:19.885Z,51.50
2018-11-06T10:42:47.141Z,51.50
2018-11-06T10:45:14.278Z,51.50
2018-11-06T10:47:41.339Z,51.40
2018-11-06T10:50:09.566Z,51.40
2018-11-06T10:52:36.746Z,51.50
2018-11-06T10:55:04.467Z,52.10
2018-11-06T10:57:31.561Z,51.50
2018-11-06T10:59:58.704Z,51.50
2018-11-06T11:02:31.672Z,51.50
2018-11-06T11:04:58.765Z,51.50
2018-11-06T11:07:25.863Z,51.50
2018-11-06T11:09:52.948Z,51.50
2018-11-06T11:12:20.026Z,51.50
2018-11-06T11:14:47.095Z,51.50
2018-11-06T11:17:14.217Z,51.50
2018-11-06T11:19:41.287Z,51.50
2018-11-06T11:22:08.398Z,51.50
2018-11-06T11:24:35.474Z,51.50
2018-11-06T11:27:02.571Z,51.50
2018-11-06T11:29:29.650Z,51.50
2018-11-06T11:31:56.748Z,51.50
2018-11-06T11:34:23.847Z,51.50
2018-11-06T11:36:50.943Z,51.50
2018-11-06T11:39:18.044Z,51.50
2018-11-06T11:41:45.154Z,51.40
2018-11-06T11:44:12.240Z,51.50
2018-11-06T11:46:39.352Z,51.50
2018-11-06T11:49:06.445Z,51.50
2018-11-06T11:51:33.547Z,51.50
2018-11-06T11:54:00.648Z,51.50
2018-11-06T11:56:27.839Z,51.50
2018-11-06T11:58:55.044Z,52.20
2018-11-06T12:01:22.144Z,51.50
2018-11-06T12:03:49.246Z,51.50
2018-11-06T12:06:16.322Z,51.50
2018-11-06T12:08:43.431Z,51.50
2018-11-06T12:11:10.497Z,51.50
2018-11-06T12:13:37.615Z,51.50
2018-11-06T12:16:04.759Z,51.60
2018-11-06T12:18:31.837Z,51.70
2018-11-06T12:20:58.935Z,51.60
2018-11-06T12:23:26.011Z,52.30
2018-11-06T12:25:53.267Z,51.70
2018-11-06T12:28:20.191Z,51.80
2018-11-06T12:30:47.319Z,51.80
2018-11-06T12:33:14.453Z,51.70
2018-11-06T12:35:41.518Z,51.70
2018-11-06T12:38:08.593Z,51.70
2018-11-06T12:40:35.670Z,51.80
2018-11-06T12:43:02.832Z,51.80
2018-11-06T12:45:29.880Z,51.80
2018-11-06T12:47:56.939Z,51.80
2018-11-06T12:50:24.126Z,51.80
2018-11-06T12:52:51.166Z,51.80
2018-11-06T12:55:18.286Z,51.80
2018-11-06T12:57:45.399Z,51.80
2018-11-06T13:00:14.911Z,51.80
2018-11-06T13:02:42.013Z,51.80
2018-11-06T13:05:09.431Z,51.90
2018-11-06T13:07:37.595Z,51.80
2018-11-06T13:10:04.757Z,51.90
2018-11-06T13:12:31.811Z,51.90
2018-11-06T13:14:59.321Z,51.90
2018-11-06T13:17:26.013Z,51.90
2018-11-06T13:19:53.111Z,52.00
2018-11-06T13:22:20.232Z,52.00
2018-11-06T13:24:47.332Z,52.00
2018-11-06T13:27:14.443Z,52.00
2018-11-06T13:29:41.608Z,51.90
2018-11-06T13:32:08.768Z,52.00
2018-11-06T13:34:35.872Z,52.00
2018-11-06T13:37:02.971Z,52.00
2018-11-06T13:39:30.035Z,52.00
2018-11-06T13:41:57.183Z,52.00
2018-11-06T13:44:24.643Z,52.00
2018-11-06T13:46:51.341Z,52.70
2018-11-06T13:49:18.425Z,52.10
2018-11-06T13:51:45.500Z,52.10
2018-11-06T13:54:12.585Z,52.10
2018-11-06T13:56:39.666Z,52.10
2018-11-06T13:59:06.735Z,52.10
2018-11-06T14:01:33.819Z,52.10
2018-11-06T14:04:00.902Z,52.10
2018-11-06T14:06:27.983Z,52.10
2018-11-06T14:08:55.117Z,52.10
2018-11-06T14:11:22.220Z,52.10
2018-11-06T14:13:49.297Z,52.10
2018-11-06T14:16:16.393Z,52.10
2018-11-06T14:18:43.482Z,52.20
2018-11-06T14:21:10.649Z,52.20
2018-11-06T14:23:37.763Z,52.20
2018-11-06T14:26:05.038Z,52.20
2018-11-06T14:28:32.119Z,52.20
2018-11-06T14:30:59.203Z,52.20
2018-11-06T14:33:26.301Z,52.20
2018-11-06T14:35:53.424Z,52.20
2018-11-06T14:38:20.486Z,52.20
2018-11-06T14:40:47.576Z,52.20
2018-11-06T14:43:14.670Z,52.20
2018-11-06T14:45:41.746Z,52.20
2018-11-06T14:48:08.872Z,52.10
2018-11-06T14:50:35.914Z,52.10
2018-11-06T14:53:02.992Z,52.10
2018-11-06T14:55:30.106Z,52.10
2018-11-06T14:57:57.200Z,52.20
2018-11-06T15:00:24.296Z,52.10
2018-11-06T15:02:52.350Z,52.10
2018-11-06T15:05:20.200Z,52.10
2018-11-06T15:07:47.310Z,52.10
2018-11-06T15:10:14.464Z,52.10
2018-11-06T15:12:41.814Z,52.10
2018-11-06T15:15:09.895Z,52.10
2018-11-06T15:17:37.025Z,52.10
2018-11-06T15:20:06.064Z,52.10
2018-11-06T15:22:33.163Z,52.10
2018-11-06T15:25:00.231Z,52.10
2018-11-06T15:27:27.316Z,52.10
2018-11-06T15:29:54.480Z,52.10
2018-11-06T15:32:21.699Z,52.10
2018-11-06T15:34:48.688Z,52.10
2018-11-06T15:37:15.808Z,52.10
2018-11-06T15:39:42.867Z,52.10
2018-11-06T15:42:10.060Z,52.10
2018-11-06T15:44:37.038Z,52.10
2018-11-06T15:47:04.375Z,52.10
2018-11-06T15:49:31.480Z,52.10
2018-11-06T15:51:58.628Z,52.10
2018-11-06T15:54:25.718Z,52.20
2018-11-06T15:56:52.804Z,52.20
2018-11-06T15:59:19.909Z,52.20
2018-11-06T16:01:47.043Z,52.20
2018-11-06T16:04:14.135Z,52.20
2018-11-06T16:06:41.240Z,52.20
2018-11-06T16:09:08.314Z,52.20
2018-11-06T16:11:35.399Z,52.20
2018-11-06T16:14:02.484Z,52.20
2018-11-06T16:16:29.584Z,52.30
2018-11-06T16:18:56.717Z,52.20
2018-11-06T16:21:23.775Z,52.20
2018-11-06T16:23:50.839Z,52.20
2018-11-06T16:26:17.919Z,52.20
2018-11-06T16:28:45.003Z,52.30
2018-11-06T16:31:12.079Z,52.30
2018-11-06T16:33:39.139Z,52.30
2018-11-06T16:36:06.246Z,52.30
2018-11-06T16:38:33.343Z,52.30
2018-11-06T16:41:00.432Z,52.30
2018-11-06T16:43:27.538Z,53.00
2018-11-06T16:45:54.644Z,52.40
2018-11-06T16:48:21.814Z,52.40
2018-11-06T16:50:48.860Z,52.40
2018-11-06T16:53:15.959Z,52.40
2018-11-06T16:55:43.043Z,52.40
2018-11-06T16:58:10.136Z,52.40
2018-11-06T17:00:37.290Z,52.40
2018-11-06T17:03:04.387Z,52.40
2018-11-06T17:05:31.455Z,52.40
2018-11-06T17:07:58.530Z,52.40
2018-11-06T17:10:25.627Z,52.40
2018-11-06T17:12:52.730Z,52.40
2018-11-06T17:15:20.991Z,52.40
2018-11-06T17:17:48.979Z,52.40
2018-11-06T17:20:16.291Z,52.40
2018-11-06T17:22:43.383Z,52.40
2018-11-06T17:25:14.651Z,52.40
2018-11-06T17:27:41.771Z,52.40
2018-11-06T17:30:10.636Z,52.40
2018-11-06T17:32:38.424Z,52.40
2018-11-06T17:35:06.780Z,52.40
2018-11-06T17:37:33.864Z,52.40
2018-11-06T17:40:00.968Z,52.40
2018-11-06T17:42:28.070Z,52.40
2018-11-06T17:44:55.148Z,52.40
2018-11-06T17:47:22.243Z,52.40
2018-11-06T17:49:49.336Z,52.40
2018-11-06T17:52:16.436Z,52.40
2018-11-06T17:54:43.542Z,52.40
2018-11-06T17:57:10.704Z,52.50
2018-11-06T17:59:37.828Z,52.50
2018-11-06T18:02:05.413Z,52.50
2018-11-06T18:04:32.687Z,52.50
2018-11-06T18:06:59.559Z,52.50
2018-11-06T18:09:26.654Z,52.40
2018-11-06T18:11:53.801Z,52.50
2018-11-06T18:14:20.848Z,52.40
2018-11-06T18:16:47.939Z,52.40
2018-11-06T18:19:15.054Z,52.40
2018-11-06T18:21:42.141Z,52.40
2018-11-06T18:24:09.217Z,52.40
2018-11-06T18:26:36.307Z,52.40
2018-11-06T18:29:03.419Z,52.40
2018-11-06T18:31:30.518Z,52.50
2018-11-06T18:33:57.604Z,52.50
2018-11-06T18:36:24.735Z,52.50
2018-11-06T18:38:51.799Z,52.40
2018-11-06T18:41:18.898Z,52.50
2018-11-06T18:43:45.978Z,52.50
2018-11-06T18:46:13.055Z,52.50
2018-11-06T18:48:40.171Z,52.50
2018-11-06T18:51:07.271Z,52.50
2018-11-06T18:53:34.421Z,52.50
2018-11-06T18:56:01.467Z,52.50
2018-11-06T18:58:28.619Z,52.50
2018-11-06T19:00:55.694Z,52.50
2018-11-06T19:03:22.810Z,52.50
2018-11-06T19:05:49.894Z,52.50
2018-11-06T19:08:16.996Z,52.50
2018-11-06T19:10:44.114Z,52.50
2018-11-06T19:13:11.151Z,52.50
2018-11-06T19:15:38.223Z,52.50
2018-11-06T19:18:05.349Z,52.50
2018-11-06T19:20:32.432Z,52.50
2018-11-06T19:22:59.508Z,52.50
2018-11-06T19:25:26.618Z,52.50
2018-11-06T19:27:53.715Z,52.50
2018-11-06T19:30:20.829Z,52.50
2018-11-06T19:32:48.300Z,52.50
2018-11-06T19:35:15.400Z,52.50
2018-11-06T19:37:42.562Z,52.50
2018-11-06T19:40:11.079Z,52.50
2018-11-06T19:42:38.687Z,52.50
2018-11-06T19:45:06.609Z,52.50
2018-11-06T19:47:33.678Z,52.50
2018-11-06T19:50:00.820Z,52.50
2018-11-06T19:52:27.862Z,52.50
2018-11-06T19:54:54.981Z,52.50
2018-11-06T19:57:22.063Z,52.50
2018-11-06T19:59:49.147Z,52.50
2018-11-06T20:02:16.286Z,52.50
2018-11-06T20:04:43.358Z,52.70
2018-11-06T20:07:10.448Z,52.50
2018-11-06T20:09:37.563Z,52.50
2018-11-06T20:12:04.760Z,52.50
2018-11-06T20:14:31.843Z,52.50
2018-11-06T20:16:58.939Z,52.50
2018-11-06T20:19:26.023Z,52.50
2018-11-06T20:21:53.120Z,52.50
2018-11-06T20:24:20.212Z,52.50
2018-11-06T20:26:47.308Z,52.50
2018-11-06T20:29:14.407Z,52.50
2018-11-06T20:31:41.487Z,52.50
2018-11-06T20:34:08.558Z,52.50
2018-11-06T20:36:35.660Z,52.50
2018-11-06T20:39:04.367Z,52.50
2018-11-06T20:41:31.424Z,52.50
2018-11-06T20:43:58.516Z,53.10
2018-11-06T20:46:25.721Z,52.50
2018-11-06T20:48:52.747Z,52.50
2018-11-06T20:51:19.834Z,52.50
2018-11-06T20:53:46.951Z,52.50
2018-11-06T20:56:14.044Z,52.50
2018-11-06T20:58:41.139Z,52.50
2018-11-06T21:01:08.570Z,52.50
2018-11-06T21:03:35.682Z,52.50
2018-11-06T21:06:02.809Z,52.40
2018-11-06T21:08:29.923Z,52.50
2018-11-06T21:10:57.123Z,52.50
2018-11-06T21:13:24.246Z,52.50
2018-11-06T21:15:51.319Z,52.50
2018-11-06T21:18:18.466Z,52.50
2018-11-06T21:20:45.505Z,52.40
2018-11-06T21:23:12.579Z,52.50
2018-11-06T21:25:39.755Z,52.50
2018-11-06T21:28:06.780Z,52.40
2018-11-06T21:30:33.897Z,52.40
2018-11-06T21:33:00.940Z,52.50
2018-11-06T21:35:28.034Z,52.50
2018-11-06T21:37:55.096Z,52.40
2018-11-06T21:40:22.198Z,52.40
2018-11-06T21:42:49.660Z,52.50
2018-11-06T21:45:17.195Z,52.40
2018-11-06T21:47:45.064Z,52.40
2018-11-06T21:50:13.032Z,52.40
2018-11-06T21:52:40.130Z,52.40
2018-11-06T21:55:08.459Z,52.40
2018-11-06T21:57:35.657Z,52.50
2018-11-06T22:00:02.901Z,52.50
2018-11-06T22:02:29.972Z,52.50
2018-11-06T22:04:57.060Z,52.50
2018-11-06T22:07:24.184Z,52.50
2018-11-06T22:09:51.246Z,52.50
2018-11-06T22:12:18.356Z,52.50
2018-11-06T22:14:45.461Z,52.50
2018-11-06T22:17:12.657Z,52.50
2018-11-06T22:19:39.742Z,52.50
2018-11-06T22:22:06.929Z,52.50
2018-11-06T22:24:33.991Z,52.50
2018-11-06T22:27:01.089Z,52.50
2018-11-06T22:29:28.174Z,52.50
2018-11-06T22:31:55.273Z,52.50
2018-11-06T22:34:22.352Z,52.50
2018-11-06T22:36:49.482Z,52.50
2018-11-06T22:39:16.577Z,52.50
2018-11-06T22:41:43.656Z,52.50
2018-11-06T22:44:10.741Z,52.50
2018-11-06T22:46:37.835Z,52.50
2018-11-06T22:49:05.227Z,52.50
2018-11-06T22:51:32.320Z,52.50
2018-11-06T22:53:59.419Z,52.50
2018-11-06T22:56:26.521Z,52.50
2018-11-06T22:58:53.629Z,52.50
2018-11-06T23:01:24.576Z,52.40
2018-11-06T23:03:52.355Z,52.50
2018-11-06T23:06:20.023Z,52.50
2018-11-06T23:08:47.053Z,52.50
2018-11-06T23:11:14.139Z,52.50
2018-11-06T23:13:41.231Z,52.50
2018-11-06T23:16:08.329Z,52.50
2018-11-06T23:18:35.443Z,52.20
2018-11-06T23:21:02.543Z,52.40
2018-11-06T23:23:29.648Z,52.40
2018-11-06T23:25:56.747Z,52.40
2018-11-06T23:28:23.843Z,52.50
2018-11-06T23:30:50.943Z,52.40
2018-11-06T23:33:18.052Z,52.40
2018-11-06T23:35:45.162Z,52.50
2018-11-06T23:38:12.223Z,52.50
2018-11-06T23:40:39.312Z,52.40
2018-11-06T23:43:06.391Z,52.40
2018-11-06T23:45:33.487Z,52.40
2018-11-06T23:48:00.630Z,52.40
2018-11-06T23:50:27.737Z,52.40
2018-11-06T23:52:54.824Z,52.50
2018-11-06T23:55:21.928Z,52.40
2018-11-06T23:57:49.024Z,52.40
